sensor_id;sensor_type;location;lat;lon;timestamp;P1;durP1;ratioP1;P2;durP2;ratioP2
42066;SDS011;27734;47.028;28.820;2023-04-24T00:02:15;28.43;;;15.13;;
42066;SDS011;27734;47.028;28.820;2023-04-24T00:04:44;30.97;;;15.73;;
42066;SDS011;27734;47.028;28.820;2023-04-24T00:07:12;30.40;;;15.77;;
42066;SDS011;27734;47.028;28.820;2023-04-24T00:09:43;28.07;;;15.33;;
42066;SDS011;27734;47.028;28.820;2023-04-24T00:12:12;27.03;;;15.77;;
42066;SDS011;27734;47.028;28.820;2023-04-24T00:14:40;30.47;;;16.13;;
42066;SDS011;27734;47.028;28.820;2023-04-24T00:17:09;28.95;;;15.55;;
42066;SDS011;27734;47.028;28.820;2023-04-24T00:19:38;28.90;;;15.40;;
42066;SDS011;27734;47.028;28.820;2023-04-24T00:22:06;26.40;;;14.97;;
42066;SDS011;27734;47.028;28.820;2023-04-24T00:24:35;29.87;;;15.27;;
42066;SDS011;27734;47.028;28.820;2023-04-24T00:27:03;28.43;;;15.83;;
42066;SDS011;27734;47.028;28.820;2023-04-24T00:29:32;29.27;;;15.77;;
42066;SDS011;27734;47.028;28.820;2023-04-24T00:32:00;27.73;;;15.53;;
42066;SDS011;27734;47.028;28.820;2023-04-24T00:34:29;29.97;;;16.93;;
42066;SDS011;27734;47.028;28.820;2023-04-24T00:36:59;34.87;;;15.07;;
42066;SDS011;27734;47.028;28.820;2023-04-24T00:39:27;29.17;;;15.33;;
42066;SDS011;27734;47.028;28.820;2023-04-24T00:41:56;29.33;;;15.33;;
42066;SDS011;27734;47.028;28.820;2023-04-24T00:44:25;27.63;;;14.90;;
42066;SDS011;27734;47.028;28.820;2023-04-24T00:46:55;30.33;;;16.10;;
42066;SDS011;27734;47.028;28.820;2023-04-24T00:49:24;27.10;;;14.73;;
42066;SDS011;27734;47.028;28.820;2023-04-24T00:51:52;26.23;;;14.63;;
42066;SDS011;27734;47.028;28.820;2023-04-24T00:54:21;28.93;;;15.60;;
42066;SDS011;27734;47.028;28.820;2023-04-24T00:56:51;26.90;;;14.90;;
42066;SDS011;27734;47.028;28.820;2023-04-24T00:59:20;26.77;;;14.70;;
42066;SDS011;27734;47.028;28.820;2023-04-24T01:01:48;26.97;;;14.93;;
42066;SDS011;27734;47.028;28.820;2023-04-24T01:04:17;27.83;;;15.20;;
42066;SDS011;27734;47.028;28.820;2023-04-24T01:06:46;27.53;;;14.97;;
42066;SDS011;27734;47.028;28.820;2023-04-24T01:09:16;24.83;;;13.93;;
42066;SDS011;27734;47.028;28.820;2023-04-24T01:11:45;26.23;;;14.60;;
42066;SDS011;27734;47.028;28.820;2023-04-24T01:14:14;27.90;;;14.65;;
42066;SDS011;27734;47.028;28.820;2023-04-24T01:16:42;28.00;;;14.87;;
42066;SDS011;27734;47.028;28.820;2023-04-24T01:19:11;28.00;;;15.13;;
42066;SDS011;27734;47.028;28.820;2023-04-24T01:21:42;26.93;;;15.30;;
42066;SDS011;27734;47.028;28.820;2023-04-24T01:24:12;27.03;;;15.83;;
42066;SDS011;27734;47.028;28.820;2023-04-24T01:26:41;31.50;;;16.50;;
42066;SDS011;27734;47.028;28.820;2023-04-24T01:29:10;28.93;;;16.53;;
42066;SDS011;27734;47.028;28.820;2023-04-24T01:31:39;30.37;;;16.70;;
42066;SDS011;27734;47.028;28.820;2023-04-24T01:34:08;28.40;;;16.30;;
42066;SDS011;27734;47.028;28.820;2023-04-24T01:36:36;29.10;;;15.53;;
42066;SDS011;27734;47.028;28.820;2023-04-24T01:39:06;30.95;;;16.85;;
42066;SDS011;27734;47.028;28.820;2023-04-24T01:41:34;29.00;;;15.93;;
42066;SDS011;27734;47.028;28.820;2023-04-24T01:44:03;26.23;;;15.63;;
42066;SDS011;27734;47.028;28.820;2023-04-24T01:46:32;29.23;;;16.30;;
42066;SDS011;27734;47.028;28.820;2023-04-24T01:49:04;27.33;;;15.73;;
42066;SDS011;27734;47.028;28.820;2023-04-24T01:51:33;26.43;;;15.00;;
42066;SDS011;27734;47.028;28.820;2023-04-24T01:54:03;28.45;;;16.30;;
42066;SDS011;27734;47.028;28.820;2023-04-24T01:56:33;29.13;;;15.53;;
42066;SDS011;27734;47.028;28.820;2023-04-24T01:59:02;27.97;;;15.70;;
42066;SDS011;27734;47.028;28.820;2023-04-24T02:01:33;27.77;;;16.30;;
42066;SDS011;27734;47.028;28.820;2023-04-24T02:04:03;28.43;;;15.53;;
42066;SDS011;27734;47.028;28.820;2023-04-24T02:06:32;30.80;;;16.20;;
42066;SDS011;27734;47.028;28.820;2023-04-24T02:09:01;27.00;;;15.43;;
42066;SDS011;27734;47.028;28.820;2023-04-24T02:11:30;28.33;;;15.83;;
42066;SDS011;27734;47.028;28.820;2023-04-24T02:13:59;28.13;;;15.53;;
42066;SDS011;27734;47.028;28.820;2023-04-24T02:16:28;26.93;;;15.57;;
42066;SDS011;27734;47.028;28.820;2023-04-24T02:18:59;26.83;;;15.10;;
42066;SDS011;27734;47.028;28.820;2023-04-24T02:21:28;29.80;;;15.90;;
42066;SDS011;27734;47.028;28.820;2023-04-24T02:23:57;27.03;;;15.67;;
42066;SDS011;27734;47.028;28.820;2023-04-24T02:26:26;26.17;;;15.30;;
42066;SDS011;27734;47.028;28.820;2023-04-24T02:28:54;28.30;;;15.13;;
42066;SDS011;27734;47.028;28.820;2023-04-24T02:31:22;26.87;;;15.33;;
42066;SDS011;27734;47.028;28.820;2023-04-24T02:33:51;28.45;;;15.60;;
42066;SDS011;27734;47.028;28.820;2023-04-24T02:36:20;27.70;;;15.65;;
42066;SDS011;27734;47.028;28.820;2023-04-24T02:38:48;30.13;;;15.73;;
42066;SDS011;27734;47.028;28.820;2023-04-24T02:41:17;28.30;;;15.77;;
42066;SDS011;27734;47.028;28.820;2023-04-24T02:43:46;29.53;;;16.23;;
42066;SDS011;27734;47.028;28.820;2023-04-24T02:46:14;31.60;;;15.50;;
42066;SDS011;27734;47.028;28.820;2023-04-24T02:48:43;28.30;;;16.25;;
42066;SDS011;27734;47.028;28.820;2023-04-24T02:51:11;27.25;;;15.65;;
42066;SDS011;27734;47.028;28.820;2023-04-24T02:53:39;27.73;;;14.53;;
42066;SDS011;27734;47.028;28.820;2023-04-24T02:56:08;27.93;;;15.77;;
42066;SDS011;27734;47.028;28.820;2023-04-24T02:58:38;29.07;;;15.17;;
42066;SDS011;27734;47.028;28.820;2023-04-24T03:01:07;27.57;;;14.67;;
42066;SDS011;27734;47.028;28.820;2023-04-24T03:03:36;26.37;;;15.53;;
42066;SDS011;27734;47.028;28.820;2023-04-24T03:06:05;25.97;;;15.60;;
42066;SDS011;27734;47.028;28.820;2023-04-24T03:08:35;29.33;;;15.83;;
42066;SDS011;27734;47.028;28.820;2023-04-24T03:11:05;29.93;;;15.63;;
42066;SDS011;27734;47.028;28.820;2023-04-24T03:13:36;29.50;;;16.40;;
42066;SDS011;27734;47.028;28.820;2023-04-24T03:16:05;29.50;;;16.27;;
42066;SDS011;27734;47.028;28.820;2023-04-24T03:18:33;28.03;;;15.03;;
42066;SDS011;27734;47.028;28.820;2023-04-24T03:21:01;30.20;;;16.07;;
42066;SDS011;27734;47.028;28.820;2023-04-24T03:23:31;27.67;;;15.87;;
42066;SDS011;27734;47.028;28.820;2023-04-24T03:25:59;26.60;;;15.53;;
42066;SDS011;27734;47.028;28.820;2023-04-24T03:28:29;24.23;;;15.07;;
42066;SDS011;27734;47.028;28.820;2023-04-24T03:31:00;30.27;;;15.50;;
42066;SDS011;27734;47.028;28.820;2023-04-24T03:33:32;28.57;;;16.13;;
42066;SDS011;27734;47.028;28.820;2023-04-24T03:36:01;29.63;;;16.07;;
42066;SDS011;27734;47.028;28.820;2023-04-24T03:38:37;32.37;;;15.70;;
42066;SDS011;27734;47.028;28.820;2023-04-24T03:41:22;29.33;;;16.03;;
42066;SDS011;27734;47.028;28.820;2023-04-24T03:44:11;29.63;;;15.67;;
42066;SDS011;27734;47.028;28.820;2023-04-24T03:46:40;29.67;;;15.53;;
42066;SDS011;27734;47.028;28.820;2023-04-24T03:49:09;28.83;;;16.13;;
42066;SDS011;27734;47.028;28.820;2023-04-24T03:51:41;28.87;;;15.90;;
42066;SDS011;27734;47.028;28.820;2023-04-24T03:54:16;27.93;;;15.40;;
42066;SDS011;27734;47.028;28.820;2023-04-24T03:56:45;30.47;;;16.77;;
42066;SDS011;27734;47.028;28.820;2023-04-24T03:59:13;32.70;;;17.05;;
42066;SDS011;27734;47.028;28.820;2023-04-24T04:01:44;28.60;;;16.07;;
42066;SDS011;27734;47.028;28.820;2023-04-24T04:04:16;30.13;;;15.73;;
42066;SDS011;27734;47.028;28.820;2023-04-24T04:06:45;29.33;;;15.30;;
42066;SDS011;27734;47.028;28.820;2023-04-24T04:09:14;26.33;;;15.40;;
42066;SDS011;27734;47.028;28.820;2023-04-24T04:11:43;27.20;;;15.13;;
42066;SDS011;27734;47.028;28.820;2023-04-24T04:14:12;29.43;;;15.80;;
42066;SDS011;27734;47.028;28.820;2023-04-24T04:16:43;29.50;;;16.03;;
42066;SDS011;27734;47.028;28.820;2023-04-24T04:19:11;26.37;;;15.73;;
42066;SDS011;27734;47.028;28.820;2023-04-24T04:21:40;26.17;;;14.30;;
42066;SDS011;27734;47.028;28.820;2023-04-24T04:24:13;26.37;;;14.80;;
42066;SDS011;27734;47.028;28.820;2023-04-24T04:26:44;25.00;;;13.67;;
42066;SDS011;27734;47.028;28.820;2023-04-24T04:29:20;25.23;;;13.50;;
42066;SDS011;27734;47.028;28.820;2023-04-24T04:31:50;23.50;;;13.63;;
42066;SDS011;27734;47.028;28.820;2023-04-24T04:34:19;22.93;;;12.67;;
42066;SDS011;27734;47.028;28.820;2023-04-24T04:36:48;23.23;;;12.43;;
42066;SDS011;27734;47.028;28.820;2023-04-24T04:39:37;24.43;;;12.50;;
42066;SDS011;27734;47.028;28.820;2023-04-24T04:42:09;22.03;;;12.17;;
42066;SDS011;27734;47.028;28.820;2023-04-24T04:44:42;23.70;;;12.40;;
42066;SDS011;27734;47.028;28.820;2023-04-24T04:47:16;22.53;;;11.57;;
42066;SDS011;27734;47.028;28.820;2023-04-24T04:49:45;20.83;;;11.07;;
42066;SDS011;27734;47.028;28.820;2023-04-24T04:52:20;21.00;;;11.23;;
42066;SDS011;27734;47.028;28.820;2023-04-24T04:57:23;22.77;;;11.13;;
42066;SDS011;27734;47.028;28.820;2023-04-24T04:59:51;21.60;;;10.30;;
42066;SDS011;27734;47.028;28.820;2023-04-24T05:02:28;19.15;;;10.55;;
42066;SDS011;27734;47.028;28.820;2023-04-24T05:04:57;19.47;;;9.30;;
42066;SDS011;27734;47.028;28.820;2023-04-24T05:07:25;17.53;;;9.20;;
42066;SDS011;27734;47.028;28.820;2023-04-24T05:09:55;19.30;;;9.60;;
42066;SDS011;27734;47.028;28.820;2023-04-24T05:12:24;17.33;;;9.23;;
42066;SDS011;27734;47.028;28.820;2023-04-24T05:14:53;19.20;;;9.30;;
42066;SDS011;27734;47.028;28.820;2023-04-24T05:17:22;20.50;;;8.53;;
42066;SDS011;27734;47.028;28.820;2023-04-24T05:19:51;15.30;;;8.27;;
42066;SDS011;27734;47.028;28.820;2023-04-24T05:22:19;16.77;;;8.67;;
42066;SDS011;27734;47.028;28.820;2023-04-24T05:24:51;15.90;;;8.30;;
42066;SDS011;27734;47.028;28.820;2023-04-24T05:27:36;19.03;;;9.13;;
42066;SDS011;27734;47.028;28.820;2023-04-24T05:30:08;17.57;;;8.60;;
42066;SDS011;27734;47.028;28.820;2023-04-24T05:32:37;18.90;;;9.27;;
42066;SDS011;27734;47.028;28.820;2023-04-24T05:35:06;22.33;;;9.40;;
42066;SDS011;27734;47.028;28.820;2023-04-24T05:37:36;19.53;;;9.53;;
42066;SDS011;27734;47.028;28.820;2023-04-24T05:40:05;15.93;;;8.93;;
42066;SDS011;27734;47.028;28.820;2023-04-24T05:42:35;19.10;;;9.80;;
42066;SDS011;27734;47.028;28.820;2023-04-24T05:45:05;21.63;;;9.53;;
42066;SDS011;27734;47.028;28.820;2023-04-24T05:47:36;20.33;;;10.47;;
42066;SDS011;27734;47.028;28.820;2023-04-24T05:50:05;20.40;;;10.80;;
42066;SDS011;27734;47.028;28.820;2023-04-24T05:52:35;22.63;;;11.13;;
42066;SDS011;27734;47.028;28.820;2023-04-24T05:55:07;20.27;;;10.70;;
42066;SDS011;27734;47.028;28.820;2023-04-24T05:57:38;22.33;;;11.30;;
42066;SDS011;27734;47.028;28.820;2023-04-24T06:00:08;21.60;;;10.93;;
42066;SDS011;27734;47.028;28.820;2023-04-24T06:02:44;25.70;;;11.75;;
42066;SDS011;27734;47.028;28.820;2023-04-24T06:05:13;21.47;;;11.30;;
42066;SDS011;27734;47.028;28.820;2023-04-24T06:07:41;19.60;;;10.63;;
42066;SDS011;27734;47.028;28.820;2023-04-24T06:10:10;20.07;;;10.80;;
42066;SDS011;27734;47.028;28.820;2023-04-24T06:12:42;21.00;;;11.07;;
42066;SDS011;27734;47.028;28.820;2023-04-24T06:15:17;18.77;;;10.27;;
42066;SDS011;27734;47.028;28.820;2023-04-24T06:17:56;19.63;;;9.50;;
42066;SDS011;27734;47.028;28.820;2023-04-24T06:20:26;20.13;;;10.07;;
42066;SDS011;27734;47.028;28.820;2023-04-24T06:22:54;18.73;;;10.30;;
42066;SDS011;27734;47.028;28.820;2023-04-24T06:25:24;18.90;;;9.63;;
42066;SDS011;27734;47.028;28.820;2023-04-24T06:27:53;18.67;;;9.87;;
42066;SDS011;27734;47.028;28.820;2023-04-24T06:30:22;18.93;;;9.20;;
42066;SDS011;27734;47.028;28.820;2023-04-24T06:32:50;18.30;;;9.20;;
42066;SDS011;27734;47.028;28.820;2023-04-24T06:35:19;16.73;;;8.63;;
42066;SDS011;27734;47.028;28.820;2023-04-24T06:37:48;18.30;;;7.97;;
42066;SDS011;27734;47.028;28.820;2023-04-24T06:40:16;16.80;;;7.70;;
42066;SDS011;27734;47.028;28.820;2023-04-24T06:42:45;13.80;;;7.60;;
42066;SDS011;27734;47.028;28.820;2023-04-24T06:45:15;14.43;;;7.83;;
42066;SDS011;27734;47.028;28.820;2023-04-24T06:47:43;16.10;;;8.30;;
42066;SDS011;27734;47.028;28.820;2023-04-24T06:50:11;15.37;;;8.13;;
42066;SDS011;27734;47.028;28.820;2023-04-24T06:52:40;13.80;;;6.90;;
42066;SDS011;27734;47.028;28.820;2023-04-24T06:55:09;12.03;;;6.80;;
42066;SDS011;27734;47.028;28.820;2023-04-24T06:57:38;12.33;;;6.73;;
42066;SDS011;27734;47.028;28.820;2023-04-24T07:00:08;14.33;;;6.97;;
42066;SDS011;27734;47.028;28.820;2023-04-24T07:02:37;11.00;;;6.17;;
42066;SDS011;27734;47.028;28.820;2023-04-24T07:05:06;8.63;;;5.27;;
42066;SDS011;27734;47.028;28.820;2023-04-24T07:07:35;12.43;;;5.60;;
42066;SDS011;27734;47.028;28.820;2023-04-24T07:10:06;9.20;;;4.70;;
42066;SDS011;27734;47.028;28.820;2023-04-24T07:12:35;8.70;;;4.83;;
42066;SDS011;27734;47.028;28.820;2023-04-24T07:15:05;11.50;;;5.00;;
42066;SDS011;27734;47.028;28.820;2023-04-24T07:17:36;11.67;;;5.47;;
42066;SDS011;27734;47.028;28.820;2023-04-24T07:20:06;10.20;;;5.23;;
42066;SDS011;27734;47.028;28.820;2023-04-24T07:22:36;10.17;;;4.73;;
42066;SDS011;27734;47.028;28.820;2023-04-24T07:25:06;11.00;;;5.17;;
42066;SDS011;27734;47.028;28.820;2023-04-24T07:27:35;9.73;;;4.87;;
42066;SDS011;27734;47.028;28.820;2023-04-24T07:30:05;9.97;;;4.90;;
42066;SDS011;27734;47.028;28.820;2023-04-24T07:32:34;10.37;;;4.63;;
42066;SDS011;27734;47.028;28.820;2023-04-24T07:35:03;11.15;;;5.40;;
42066;SDS011;27734;47.028;28.820;2023-04-24T07:37:33;11.77;;;5.27;;
42066;SDS011;27734;47.028;28.820;2023-04-24T07:40:01;12.90;;;5.57;;
42066;SDS011;27734;47.028;28.820;2023-04-24T07:42:31;12.03;;;5.10;;
42066;SDS011;27734;47.028;28.820;2023-04-24T07:45:05;9.60;;;4.92;;
42066;SDS011;27734;47.028;28.820;2023-04-24T07:47:36;10.33;;;4.93;;
42066;SDS011;27734;47.028;28.820;2023-04-24T07:50:06;8.50;;;4.60;;
42066;SDS011;27734;47.028;28.820;2023-04-24T07:52:35;8.80;;;4.90;;
42066;SDS011;27734;47.028;28.820;2023-04-24T07:55:04;8.10;;;4.90;;
42066;SDS011;27734;47.028;28.820;2023-04-24T07:57:33;9.23;;;4.93;;
42066;SDS011;27734;47.028;28.820;2023-04-24T08:00:03;11.77;;;4.73;;
42066;SDS011;27734;47.028;28.820;2023-04-24T08:02:38;13.60;;;4.90;;
42066;SDS011;27734;47.028;28.820;2023-04-24T08:05:07;8.83;;;4.47;;
42066;SDS011;27734;47.028;28.820;2023-04-24T08:07:36;11.47;;;5.00;;
42066;SDS011;27734;47.028;28.820;2023-04-24T08:10:06;7.97;;;4.60;;
42066;SDS011;27734;47.028;28.820;2023-04-24T08:12:36;8.80;;;4.70;;
42066;SDS011;27734;47.028;28.820;2023-04-24T08:15:06;7.83;;;4.47;;
42066;SDS011;27734;47.028;28.820;2023-04-24T08:17:36;7.47;;;4.10;;
42066;SDS011;27734;47.028;28.820;2023-04-24T08:20:06;8.33;;;4.23;;
42066;SDS011;27734;47.028;28.820;2023-04-24T08:22:40;8.20;;;4.50;;
42066;SDS011;27734;47.028;28.820;2023-04-24T08:25:09;8.03;;;4.20;;
42066;SDS011;27734;47.028;28.820;2023-04-24T08:27:38;7.70;;;4.20;;
42066;SDS011;27734;47.028;28.820;2023-04-24T08:30:07;8.27;;;4.20;;
42066;SDS011;27734;47.028;28.820;2023-04-24T08:32:36;8.00;;;4.53;;
42066;SDS011;27734;47.028;28.820;2023-04-24T08:35:05;6.90;;;4.13;;
42066;SDS011;27734;47.028;28.820;2023-04-24T08:37:36;7.27;;;4.10;;
42066;SDS011;27734;47.028;28.820;2023-04-24T08:40:05;10.60;;;4.20;;
42066;SDS011;27734;47.028;28.820;2023-04-24T08:42:42;9.10;;;4.47;;
42066;SDS011;27734;47.028;28.820;2023-04-24T08:45:11;6.73;;;4.03;;
42066;SDS011;27734;47.028;28.820;2023-04-24T08:47:40;10.25;;;4.05;;
42066;SDS011;27734;47.028;28.820;2023-04-24T08:50:10;6.63;;;3.87;;
42066;SDS011;27734;47.028;28.820;2023-04-24T08:52:39;11.10;;;4.57;;
42066;SDS011;27734;47.028;28.820;2023-04-24T08:55:09;7.43;;;4.00;;
42066;SDS011;27734;47.028;28.820;2023-04-24T08:57:37;8.17;;;4.40;;
42066;SDS011;27734;47.028;28.820;2023-04-24T09:00:08;7.85;;;4.20;;
42066;SDS011;27734;47.028;28.820;2023-04-24T09:02:39;10.87;;;4.17;;
42066;SDS011;27734;47.028;28.820;2023-04-24T09:05:10;10.33;;;4.20;;
42066;SDS011;27734;47.028;28.820;2023-04-24T09:07:40;7.23;;;4.50;;
42066;SDS011;27734;47.028;28.820;2023-04-24T09:10:12;6.57;;;3.93;;
42066;SDS011;27734;47.028;28.820;2023-04-24T09:12:42;8.97;;;4.53;;
42066;SDS011;27734;47.028;28.820;2023-04-24T09:15:12;7.40;;;4.20;;
42066;SDS011;27734;47.028;28.820;2023-04-24T09:17:41;7.60;;;3.83;;
42066;SDS011;27734;47.028;28.820;2023-04-24T09:20:10;7.83;;;4.03;;
42066;SDS011;27734;47.028;28.820;2023-04-24T09:22:41;6.83;;;4.20;;
42066;SDS011;27734;47.028;28.820;2023-04-24T09:25:10;8.27;;;4.10;;
42066;SDS011;27734;47.028;28.820;2023-04-24T09:27:42;8.70;;;4.37;;
42066;SDS011;27734;47.028;28.820;2023-04-24T09:30:13;7.90;;;4.47;;
42066;SDS011;27734;47.028;28.820;2023-04-24T09:32:47;7.93;;;3.90;;
42066;SDS011;27734;47.028;28.820;2023-04-24T09:35:16;7.33;;;4.37;;
42066;SDS011;27734;47.028;28.820;2023-04-24T09:37:45;8.80;;;4.00;;
42066;SDS011;27734;47.028;28.820;2023-04-24T09:40:16;6.45;;;3.85;;
42066;SDS011;27734;47.028;28.820;2023-04-24T09:42:45;9.57;;;4.47;;
42066;SDS011;27734;47.028;28.820;2023-04-24T09:47:46;8.00;;;4.00;;
42066;SDS011;27734;47.028;28.820;2023-04-24T09:50:20;7.58;;;3.60;;
42066;SDS011;27734;47.028;28.820;2023-04-24T09:52:56;8.33;;;4.00;;
42066;SDS011;27734;47.028;28.820;2023-04-24T09:55:28;9.37;;;4.13;;
42066;SDS011;27734;47.028;28.820;2023-04-24T09:57:57;6.47;;;3.90;;
42066;SDS011;27734;47.028;28.820;2023-04-24T10:00:27;8.33;;;4.23;;
42066;SDS011;27734;47.028;28.820;2023-04-24T10:02:58;8.27;;;3.90;;
42066;SDS011;27734;47.028;28.820;2023-04-24T10:05:28;8.23;;;4.13;;
42066;SDS011;27734;47.028;28.820;2023-04-24T10:08:00;8.45;;;3.90;;
42066;SDS011;27734;47.028;28.820;2023-04-24T10:10:30;9.00;;;3.90;;
42066;SDS011;27734;47.028;28.820;2023-04-24T10:13:01;6.67;;;4.13;;
42066;SDS011;27734;47.028;28.820;2023-04-24T10:15:30;6.13;;;4.17;;
42066;SDS011;27734;47.028;28.820;2023-04-24T10:18:00;7.10;;;4.60;;
42066;SDS011;27734;47.028;28.820;2023-04-24T10:20:29;8.50;;;4.03;;
42066;SDS011;27734;47.028;28.820;2023-04-24T10:22:58;7.63;;;4.10;;
42066;SDS011;27734;47.028;28.820;2023-04-24T10:25:27;5.73;;;3.97;;
42066;SDS011;27734;47.028;28.820;2023-04-24T10:27:57;8.30;;;4.40;;
42066;SDS011;27734;47.028;28.820;2023-04-24T10:30:28;6.63;;;3.67;;
42066;SDS011;27734;47.028;28.820;2023-04-24T10:32:57;6.97;;;4.20;;
42066;SDS011;27734;47.028;28.820;2023-04-24T10:35:26;6.13;;;3.87;;
42066;SDS011;27734;47.028;28.820;2023-04-24T10:38:01;8.03;;;4.45;;
42066;SDS011;27734;47.028;28.820;2023-04-24T10:40:35;8.03;;;4.20;;
42066;SDS011;27734;47.028;28.820;2023-04-24T10:43:04;5.90;;;3.90;;
42066;SDS011;27734;47.028;28.820;2023-04-24T10:45:36;9.23;;;4.47;;
42066;SDS011;27734;47.028;28.820;2023-04-24T10:48:06;8.07;;;4.33;;
42066;SDS011;27734;47.028;28.820;2023-04-24T10:50:43;7.40;;;4.07;;
42066;SDS011;27734;47.028;28.820;2023-04-24T10:53:15;6.37;;;3.62;;
42066;SDS011;27734;47.028;28.820;2023-04-24T10:55:45;6.60;;;3.93;;
42066;SDS011;27734;47.028;28.820;2023-04-24T10:58:15;7.27;;;4.23;;
42066;SDS011;27734;47.028;28.820;2023-04-24T11:00:55;9.13;;;4.00;;
42066;SDS011;27734;47.028;28.820;2023-04-24T11:03:26;6.00;;;3.70;;
42066;SDS011;27734;47.028;28.820;2023-04-24T11:05:56;7.03;;;3.90;;
42066;SDS011;27734;47.028;28.820;2023-04-24T11:08:28;8.00;;;4.15;;
42066;SDS011;27734;47.028;28.820;2023-04-24T11:10:59;7.43;;;4.30;;
42066;SDS011;27734;47.028;28.820;2023-04-24T11:16:33;6.07;;;3.80;;
42066;SDS011;27734;47.028;28.820;2023-04-24T11:19:05;8.83;;;3.90;;
42066;SDS011;27734;47.028;28.820;2023-04-24T11:21:42;8.20;;;4.10;;
42066;SDS011;27734;47.028;28.820;2023-04-24T11:24:28;7.23;;;4.10;;
42066;SDS011;27734;47.028;28.820;2023-04-24T11:27:00;9.27;;;4.30;;
42066;SDS011;27734;47.028;28.820;2023-04-24T11:29:44;9.23;;;3.93;;
42066;SDS011;27734;47.028;28.820;2023-04-24T11:32:18;9.37;;;4.37;;
42066;SDS011;27734;47.028;28.820;2023-04-24T11:34:51;10.13;;;4.57;;
42066;SDS011;27734;47.028;28.820;2023-04-24T11:37:21;6.83;;;3.87;;
42066;SDS011;27734;47.028;28.820;2023-04-24T11:39:51;8.07;;;3.97;;
42066;SDS011;27734;47.028;28.820;2023-04-24T11:42:20;7.53;;;3.83;;
42066;SDS011;27734;47.028;28.820;2023-04-24T11:44:51;8.00;;;3.80;;
42066;SDS011;27734;47.028;28.820;2023-04-24T11:47:20;6.33;;;3.63;;
42066;SDS011;27734;47.028;28.820;2023-04-24T11:50:00;8.03;;;3.70;;
42066;SDS011;27734;47.028;28.820;2023-04-24T11:52:30;7.03;;;3.80;;
42066;SDS011;27734;47.028;28.820;2023-04-24T11:54:59;6.10;;;3.60;;
42066;SDS011;27734;47.028;28.820;2023-04-24T11:57:27;7.87;;;3.90;;
42066;SDS011;27734;47.028;28.820;2023-04-24T12:00:00;12.03;;;4.37;;
42066;SDS011;27734;47.028;28.820;2023-04-24T12:02:39;7.07;;;3.63;;
42066;SDS011;27734;47.028;28.820;2023-04-24T12:05:07;10.50;;;3.60;;
42066;SDS011;27734;47.028;28.820;2023-04-24T12:07:46;6.55;;;4.00;;
42066;SDS011;27734;47.028;28.820;2023-04-24T12:10:14;5.00;;;3.63;;
42066;SDS011;27734;47.028;28.820;2023-04-24T12:12:48;5.00;;;3.37;;
42066;SDS011;27734;47.028;28.820;2023-04-24T12:15:18;6.83;;;3.40;;
42066;SDS011;27734;47.028;28.820;2023-04-24T12:17:48;6.57;;;3.50;;
42066;SDS011;27734;47.028;28.820;2023-04-24T12:20:23;3.87;;;3.23;;
42066;SDS011;27734;47.028;28.820;2023-04-24T12:22:53;6.67;;;3.67;;
42066;SDS011;27734;47.028;28.820;2023-04-24T12:25:23;7.20;;;3.63;;
42066;SDS011;27734;47.028;28.820;2023-04-24T12:27:54;5.83;;;3.40;;
42066;SDS011;27734;47.028;28.820;2023-04-24T12:30:39;5.30;;;3.30;;
42066;SDS011;27734;47.028;28.820;2023-04-24T12:33:11;6.83;;;3.50;;
42066;SDS011;27734;47.028;28.820;2023-04-24T12:35:40;5.80;;;3.50;;
42066;SDS011;27734;47.028;28.820;2023-04-24T12:38:09;7.83;;;3.60;;
42066;SDS011;27734;47.028;28.820;2023-04-24T12:40:39;9.47;;;3.83;;
42066;SDS011;27734;47.028;28.820;2023-04-24T12:43:15;6.40;;;3.40;;
42066;SDS011;27734;47.028;28.820;2023-04-24T12:45:45;7.13;;;3.63;;
42066;SDS011;27734;47.028;28.820;2023-04-24T12:48:14;5.90;;;3.70;;
42066;SDS011;27734;47.028;28.820;2023-04-24T12:50:43;7.10;;;3.85;;
42066;SDS011;27734;47.028;28.820;2023-04-24T12:53:11;8.20;;;4.30;;
42066;SDS011;27734;47.028;28.820;2023-04-24T12:55:40;5.33;;;3.60;;
42066;SDS011;27734;47.028;28.820;2023-04-24T12:58:09;10.57;;;4.00;;
42066;SDS011;27734;47.028;28.820;2023-04-24T13:00:37;8.40;;;3.53;;
42066;SDS011;27734;47.028;28.820;2023-04-24T13:03:06;7.87;;;4.00;;
42066;SDS011;27734;47.028;28.820;2023-04-24T13:05:35;6.40;;;3.67;;
42066;SDS011;27734;47.028;28.820;2023-04-24T13:08:03;7.27;;;3.90;;
42066;SDS011;27734;47.028;28.820;2023-04-24T13:10:31;8.73;;;3.87;;
42066;SDS011;27734;47.028;28.820;2023-04-24T13:13:00;7.30;;;4.10;;
42066;SDS011;27734;47.028;28.820;2023-04-24T13:15:30;6.27;;;3.70;;
42066;SDS011;27734;47.028;28.820;2023-04-24T13:17:58;7.27;;;4.10;;
42066;SDS011;27734;47.028;28.820;2023-04-24T13:20:27;7.90;;;4.37;;
42066;SDS011;27734;47.028;28.820;2023-04-24T13:22:55;9.25;;;4.20;;
42066;SDS011;27734;47.028;28.820;2023-04-24T13:25:24;8.40;;;4.10;;
42066;SDS011;27734;47.028;28.820;2023-04-24T13:27:53;7.87;;;4.30;;
42066;SDS011;27734;47.028;28.820;2023-04-24T13:30:21;7.17;;;4.33;;
42066;SDS011;27734;47.028;28.820;2023-04-24T13:32:50;14.83;;;4.70;;
42066;SDS011;27734;47.028;28.820;2023-04-24T13:35:18;8.13;;;3.93;;
42066;SDS011;27734;47.028;28.820;2023-04-24T13:37:47;7.30;;;4.53;;
42066;SDS011;27734;47.028;28.820;2023-04-24T13:40:15;8.97;;;4.37;;
42066;SDS011;27734;47.028;28.820;2023-04-24T13:42:44;8.40;;;4.50;;
42066;SDS011;27734;47.028;28.820;2023-04-24T13:45:12;6.27;;;4.20;;
42066;SDS011;27734;47.028;28.820;2023-04-24T13:47:41;8.37;;;4.50;;
42066;SDS011;27734;47.028;28.820;2023-04-24T13:50:09;10.30;;;4.47;;
42066;SDS011;27734;47.028;28.820;2023-04-24T13:52:38;5.37;;;3.70;;
42066;SDS011;27734;47.028;28.820;2023-04-24T13:55:10;8.90;;;4.40;;
42066;SDS011;27734;47.028;28.820;2023-04-24T13:57:38;8.90;;;4.30;;
42066;SDS011;27734;47.028;28.820;2023-04-24T14:00:08;8.10;;;4.37;;
42066;SDS011;27734;47.028;28.820;2023-04-24T14:02:37;9.33;;;4.37;;
42066;SDS011;27734;47.028;28.820;2023-04-24T14:05:06;7.10;;;4.10;;
42066;SDS011;27734;47.028;28.820;2023-04-24T14:07:37;7.07;;;4.20;;
42066;SDS011;27734;47.028;28.820;2023-04-24T14:10:06;6.83;;;4.30;;
42066;SDS011;27734;47.028;28.820;2023-04-24T14:12:36;7.77;;;4.20;;
42066;SDS011;27734;47.028;28.820;2023-04-24T14:15:06;12.43;;;4.40;;
42066;SDS011;27734;47.028;28.820;2023-04-24T14:17:37;7.40;;;4.50;;
42066;SDS011;27734;47.028;28.820;2023-04-24T14:20:07;12.47;;;4.53;;
42066;SDS011;27734;47.028;28.820;2023-04-24T14:22:36;9.37;;;4.53;;
42066;SDS011;27734;47.028;28.820;2023-04-24T14:25:05;6.97;;;4.20;;
42066;SDS011;27734;47.028;28.820;2023-04-24T14:27:35;9.27;;;4.80;;
42066;SDS011;27734;47.028;28.820;2023-04-24T14:30:05;8.73;;;4.40;;
42066;SDS011;27734;47.028;28.820;2023-04-24T14:32:35;9.97;;;4.30;;
42066;SDS011;27734;47.028;28.820;2023-04-24T14:35:06;9.80;;;4.77;;
42066;SDS011;27734;47.028;28.820;2023-04-24T14:37:35;8.37;;;4.30;;
42066;SDS011;27734;47.028;28.820;2023-04-24T14:40:05;8.63;;;4.30;;
42066;SDS011;27734;47.028;28.820;2023-04-24T14:42:35;8.43;;;4.03;;
42066;SDS011;27734;47.028;28.820;2023-04-24T14:45:05;8.80;;;4.37;;
42066;SDS011;27734;47.028;28.820;2023-04-24T14:47:35;7.87;;;4.40;;
42066;SDS011;27734;47.028;28.820;2023-04-24T14:50:06;12.33;;;4.50;;